Time;durP1;ratioP1;P1;durP2;ratioP2;P2;SDS_P1;SDS_P2;PMS_P1;PMS_P2;Temp;Humidity;BMP_temperature;BMP_pressure;BME280_temperature;BME280_humidity;BME280_pressure;Samples;Min_cycle;Max_cycle;Signal;HPM_P1;HPM_P2
2021/11/21 00:00:54;;;;;;;52.95;33.13;;;8.90;97.70;;;;;;5054582;28;20139;-81
2021/11/21 00:03:20;;;;;;;53.83;32.85;;;8.90;97.40;;;;;;5054715;28;20162;-81
2021/11/21 00:05:46;;;;;;;53.70;34.10;;;8.90;97.50;;;;;;5034662;28;20037;-81
2021/11/21 00:08:12;;;;;;;58.20;35.15;;;8.90;97.40;;;;;;5054665;28;20040;-81
2021/11/21 00:10:39;;;;;;;58.47;36.00;;;8.90;97.40;;;;;;5038188;28;20033;-82
2021/11/21 00:13:05;;;;;;;56.42;33.00;;;8.80;97.40;;;;;;5054252;28;20528;-82
2021/11/21 00:15:33;;;;;;;58.45;33.05;;;8.80;97.50;;;;;;5072365;28;20040;-82
2021/11/21 00:17:59;;;;;;;54.40;34.03;;;8.80;97.50;;;;;;5056038;28;20028;-82
2021/11/21 00:20:25;;;;;;;58.83;34.85;;;8.80;97.60;;;;;;5054527;28;20531;-81
2021/11/21 00:22:51;;;;;;;62.42;33.88;;;8.80;97.60;;;;;;5035978;28;20071;-82
2021/11/21 00:25:17;;;;;;;57.60;35.60;;;8.80;97.60;;;;;;5044256;28;21652;-82
2021/11/21 00:27:42;;;;;;;54.67;33.78;;;8.90;97.60;;;;;;5054377;28;20028;-82
2021/11/21 00:30:08;;;;;;;63.08;36.67;;;8.90;97.70;;;;;;5054769;28;20051;-82
2021/11/21 00:32:34;;;;;;;65.10;35.53;;;8.90;97.70;;;;;;5037913;28;20059;-82
2021/11/21 00:35:00;;;;;;;59.67;33.67;;;8.90;97.70;;;;;;5054594;28;20040;-82
2021/11/21 00:37:28;;;;;;;52.47;31.90;;;8.90;97.70;;;;;;5072096;28;20038;-82
2021/11/21 00:39:54;;;;;;;53.23;31.40;;;8.90;98.00;;;;;;5037825;28;20042;-81
2021/11/21 00:42:20;;;;;;;57.75;33.53;;;8.90;97.80;;;;;;5054432;28;20033;-82
2021/11/21 00:44:46;;;;;;;61.85;34.50;;;8.80;97.70;;;;;;5054283;28;20052;-82
2021/11/21 00:47:12;;;;;;;62.30;33.65;;;8.80;97.80;;;;;;5033629;28;20065;-82
2021/11/21 00:49:39;;;;;;;54.25;32.00;;;8.80;97.80;;;;;;5054036;28;20788;-81
2021/11/21 00:52:05;;;;;;;65.43;34.67;;;8.80;97.80;;;;;;5037674;28;20028;-82
2021/11/21 00:54:47;;;;;;;62.50;33.95;;;8.80;97.90;;;;;;5058794;28;20121;-82
2021/11/21 00:57:13;;;;;;;55.95;31.25;;;8.80;97.90;;;;;;5070793;28;20028;-82
2021/11/21 00:59:39;;;;;;;53.38;31.00;;;8.80;98.20;;;;;;5072065;28;20428;-81
2021/11/21 01:02:09;;;;;;;53.67;31.23;;;8.80;98.30;;;;;;5054043;28;20174;-82
2021/11/21 01:04:37;;;;;;;62.28;32.72;;;8.80;98.00;;;;;;5065200;28;20070;-82
2021/11/21 01:07:03;;;;;;;56.15;31.48;;;8.80;98.00;;;;;;5073996;28;20495;-82
2021/11/21 01:09:29;;;;;;;58.55;33.13;;;8.80;98.00;;;;;;5076295;28;20370;-82
2021/11/21 01:11:57;;;;;;;59.95;32.63;;;8.80;98.00;;;;;;5074471;28;20752;-82
2021/11/21 01:14:23;;;;;;;56.42;31.35;;;8.80;98.00;;;;;;5055116;28;20116;-82
2021/11/21 01:16:49;;;;;;;60.63;32.42;;;8.80;98.00;;;;;;5054407;28;20108;-82
2021/11/21 01:19:15;;;;;;;56.45;30.83;;;8.80;98.00;;;;;;5061245;28;20048;-82
2021/11/21 01:21:41;;;;;;;61.25;31.98;;;8.80;98.00;;;;;;5074624;28;20118;-82
2021/11/21 01:24:06;;;;;;;67.13;32.88;;;8.80;98.00;;;;;;5072714;28;20086;-82
2021/11/21 01:26:32;;;;;;;57.60;31.67;;;8.70;98.10;;;;;;5067676;28;20029;-82
2021/11/21 01:28:58;;;;;;;56.40;30.25;;;8.70;98.10;;;;;;5040781;28;20029;-82
2021/11/21 01:31:24;;;;;;;63.65;30.73;;;8.70;98.10;;;;;;5072478;28;20025;-82
2021/11/21 01:33:49;;;;;;;56.05;31.10;;;8.70;98.10;;;;;;5072803;28;20108;-82
2021/11/21 01:36:15;;;;;;;54.92;30.20;;;8.80;98.20;;;;;;5073821;28;20078;-81
2021/11/21 01:38:43;;;;;;;55.15;30.75;;;8.80;98.20;;;;;;5074215;28;20043;-82
2021/11/21 01:41:08;;;;;;;53.15;29.90;;;8.70;98.20;;;;;;5051505;28;20094;-81
2021/11/21 01:43:34;;;;;;;56.60;31.00;;;8.80;98.20;;;;;;5073189;28;20477;-82
2021/11/21 01:46:00;;;;;;;58.38;29.63;;;8.80;98.30;;;;;;5073067;28;20032;-82
2021/11/21 01:48:26;;;;;;;57.97;29.85;;;8.80;98.20;;;;;;5073525;28;20408;-82
2021/11/21 01:50:53;;;;;;;53.05;28.85;;;8.70;98.50;;;;;;5073611;28;20505;-81
2021/11/21 01:53:19;;;;;;;52.92;28.45;;;8.70;98.30;;;;;;5072415;28;20032;-82
2021/11/21 01:55:47;;;;;;;55.47;30.00;;;8.70;98.30;;;;;;5056448;28;20393;-82
2021/11/21 01:58:13;;;;;;;45.15;27.83;;;8.70;98.30;;;;;;5072293;28;20459;-82
2021/11/21 02:00:41;;;;;;;50.97;29.08;;;8.70;98.30;;;;;;5074276;28;20048;-82
2021/11/21 02:03:07;;;;;;;50.95;28.30;;;8.70;98.30;;;;;;5055146;28;20047;-82
2021/11/21 02:05:33;;;;;;;49.47;26.83;;;8.70;98.40;;;;;;5070405;28;20036;-82
2021/11/21 02:07:59;;;;;;;48.92;27.95;;;8.70;98.40;;;;;;5072552;28;20024;-82
2021/11/21 02:10:25;;;;;;;53.20;28.80;;;8.70;98.30;;;;;;5070790;28;20025;-82
2021/11/21 02:12:52;;;;;;;48.70;27.98;;;8.70;98.40;;;;;;5070187;28;20054;-82
2021/11/21 02:15:20;;;;;;;50.50;27.50;;;8.70;98.40;;;;;;5070526;28;20047;-82
2021/11/21 02:17:46;;;;;;;48.20;27.10;;;8.70;98.40;;;;;;5070449;28;20048;-82
2021/11/21 02:20:17;;;;;;;55.72;28.63;;;8.60;98.40;;;;;;5070020;28;20051;-82
2021/11/21 02:22:43;;;;;;;45.35;24.95;;;8.60;98.40;;;;;;5070735;28;20044;-82
2021/11/21 02:25:10;;;;;;;45.47;25.92;;;8.70;98.50;;;;;;5071323;28;20392;-82
2021/11/21 02:27:36;;;;;;;44.50;25.88;;;8.70;98.50;;;;;;5070863;28;20503;-82
2021/11/21 02:30:05;;;;;;;45.50;25.83;;;8.70;98.50;;;;;;5070766;28;20024;-82
2021/11/21 02:32:31;;;;;;;42.55;24.67;;;8.70;98.50;;;;;;5073164;28;20566;-82
2021/11/21 02:34:57;;;;;;;43.15;24.50;;;8.70;98.50;;;;;;5072635;28;20119;-82
2021/11/21 02:37:23;;;;;;;44.67;25.45;;;8.70;98.50;;;;;;5072445;28;20503;-81
2021/11/21 02:39:49;;;;;;;47.90;25.02;;;8.70;98.50;;;;;;5055473;28;20392;-82
2021/11/21 02:42:29;;;;;;;40.08;23.17;;;8.60;98.50;;;;;;5072401;28;20033;-82
2021/11/21 02:44:55;;;;;;;43.45;24.98;;;8.70;98.60;;;;;;5072918;28;20037;-82
2021/11/21 02:47:22;;;;;;;40.70;24.17;;;8.70;98.50;;;;;;5072668;28;20126;-82
2021/11/21 02:49:48;;;;;;;43.00;24.85;;;8.70;98.50;;;;;;5027264;28;20021;-82
2021/11/21 02:52:14;;;;;;;44.67;25.90;;;8.70;98.60;;;;;;5072478;28;20033;-82
2021/11/21 02:54:52;;;;;;;48.45;26.38;;;8.70;98.60;;;;;;5054015;28;20044;-82
2021/11/21 02:57:17;;;;;;;43.65;25.08;;;8.70;98.60;;;;;;5071788;28;20035;-81
2021/11/21 02:59:43;;;;;;;44.55;23.88;;;8.70;98.50;;;;;;5071633;28;20025;-82
2021/11/21 03:02:09;;;;;;;46.75;25.27;;;8.70;98.60;;;;;;5069435;28;20480;-82
2021/11/21 03:04:34;;;;;;;46.67;26.27;;;8.70;98.60;;;;;;5065727;28;20040;-82
2021/11/21 03:07:00;;;;;;;44.63;23.85;;;8.70;98.60;;;;;;5053320;28;20112;-81
2021/11/21 03:09:25;;;;;;;44.17;23.85;;;8.70;98.60;;;;;;5071199;28;20037;-81
2021/11/21 03:11:53;;;;;;;53.25;25.02;;;8.70;98.60;;;;;;5069914;28;20477;-81
2021/11/21 03:14:19;;;;;;;44.75;24.23;;;8.70;98.70;;;;;;5071589;28;20044;-82
2021/11/21 03:16:48;;;;;;;52.40;26.45;;;8.70;98.70;;;;;;5070360;28;20596;-82
2021/11/21 03:19:15;;;;;;;42.80;23.10;;;8.70;98.70;;;;;;5070488;28;20040;-82
2021/11/21 03:21:41;;;;;;;41.40;22.63;;;8.70;98.70;;;;;;5081013;28;20043;-81
2021/11/21 03:24:07;;;;;;;41.70;23.17;;;8.70;98.80;;;;;;5071182;28;20029;-82
2021/11/21 03:26:33;;;;;;;38.92;22.77;;;8.70;98.80;;;;;;5069792;28;20047;-81
2021/11/21 03:28:59;;;;;;;38.97;21.92;;;8.70;98.80;;;;;;5054282;28;20035;-82
2021/11/21 03:31:24;;;;;;;48.70;24.55;;;8.70;98.80;;;;;;5070704;28;20125;-82
2021/11/21 03:33:50;;;;;;;46.17;23.13;;;8.70;98.80;;;;;;5070913;28;20024;-81
2021/11/21 03:36:16;;;;;;;43.33;23.70;;;8.70;98.80;;;;;;5070807;28;20085;-82
2021/11/21 03:38:41;;;;;;;51.95;25.77;;;8.70;98.80;;;;;;5071939;28;20016;-82
2021/11/21 03:41:08;;;;;;;46.63;24.20;;;8.70;98.80;;;;;;5070844;28;20017;-82
2021/11/21 03:43:34;;;;;;;47.50;23.55;;;8.70;98.80;;;;;;5053547;28;20120;-81
2021/11/21 03:46:00;;;;;;;48.25;23.48;;;8.70;98.80;;;;;;5070680;28;20056;-82
2021/11/21 03:48:25;;;;;;;51.42;24.00;;;8.70;98.80;;;;;;5070294;28;20508;-81
2021/11/21 03:50:51;;;;;;;49.50;24.63;;;8.70;98.80;;;;;;5070099;28;20086;-82
2021/11/21 03:53:18;;;;;;;55.65;25.65;;;8.70;98.80;;;;;;5071982;28;20039;-81
2021/11/21 03:55:44;;;;;;;56.25;25.77;;;8.70;98.90;;;;;;5069320;28;20049;-81
2021/11/21 03:58:10;;;;;;;45.42;24.63;;;8.70;98.90;;;;;;5052192;28;20063;-81
2021/11/21 04:00:36;;;;;;;51.30;25.88;;;8.70;99.20;;;;;;5049049;28;20053;-82
2021/11/21 04:03:05;;;;;;;53.67;26.60;;;8.70;98.90;;;;;;5070105;28;20481;-82
2021/11/21 04:05:31;;;;;;;50.38;25.55;;;8.70;98.90;;;;;;5070014;28;20040;-82
2021/11/21 04:07:56;;;;;;;55.72;27.20;;;8.70;98.90;;;;;;5071493;28;20036;-82
2021/11/21 04:10:23;;;;;;;57.70;27.23;;;8.70;98.90;;;;;;5050461;28;20075;-82
2021/11/21 04:12:48;;;;;;;59.60;26.17;;;8.70;98.90;;;;;;5060789;28;20100;-82
2021/11/21 04:15:14;;;;;;;51.25;24.75;;;8.80;99.00;;;;;;5068304;28;20123;-82
2021/11/21 04:17:40;;;;;;;59.38;26.95;;;8.70;98.90;;;;;;5053414;28;20036;-81
2021/11/21 04:20:08;;;;;;;53.38;26.02;;;8.70;99.00;;;;;;5069445;28;20044;-82
2021/11/21 04:22:34;;;;;;;50.50;25.25;;;8.70;99.00;;;;;;5069663;28;20035;-82
2021/11/21 04:25:00;;;;;;;60.42;25.77;;;8.70;99.00;;;;;;5067832;28;20040;-82
2021/11/21 04:27:27;;;;;;;58.35;26.15;;;8.80;99.00;;;;;;5053069;28;20071;-82
2021/11/21 04:29:54;;;;;;;60.22;26.85;;;8.70;99.00;;;;;;5069031;28;20024;-82
2021/11/21 04:32:20;;;;;;;64.78;27.13;;;8.70;99.00;;;;;;5068330;28;20493;-82
2021/11/21 04:34:46;;;;;;;61.20;27.58;;;8.70;99.00;;;;;;5065853;28;20140;-82
2021/11/21 04:37:12;;;;;;;54.13;26.10;;;8.70;99.00;;;;;;5068995;28;20074;-82
2021/11/21 04:39:37;;;;;;;57.80;25.92;;;8.70;99.00;;;;;;5067371;28;20054;-82
2021/11/21 04:42:03;;;;;;;60.67;27.23;;;8.70;99.00;;;;;;5040146;28;20043;-82
2021/11/21 04:44:29;;;;;;;62.47;27.55;;;8.70;99.10;;;;;;5051260;28;20499;-82
2021/11/21 04:46:54;;;;;;;62.63;27.98;;;8.70;99.10;;;;;;5052699;28;20029;-81
2021/11/21 04:49:20;;;;;;;58.92;26.20;;;8.70;99.10;;;;;;5034349;28;20037;-82
2021/11/21 04:51:46;;;;;;;65.22;28.25;;;8.80;99.20;;;;;;5067454;28;20039;-82
2021/11/21 04:54:17;;;;;;;51.22;25.98;;;8.80;99.10;;;;;;5054311;28;20045;-82
2021/11/21 04:56:46;;;;;;;59.28;27.33;;;8.70;99.10;;;;;;5070903;28;20808;-82
2021/11/21 04:59:15;;;;;;;68.07;28.35;;;8.70;99.10;;;;;;5072036;28;20070;-82
2021/11/21 05:01:43;;;;;;;75.63;29.98;;;8.70;99.40;;;;;;5070694;28;20041;-82
2021/11/21 05:04:09;;;;;;;65.10;28.55;;;8.80;99.10;;;;;;5053558;28;20052;-82
2021/11/21 05:06:35;;;;;;;71.72;28.77;;;8.70;99.10;;;;;;5044656;28;20029;-81
2021/11/21 05:09:02;;;;;;;71.15;29.75;;;8.70;99.20;;;;;;5066031;28;20054;-82
2021/11/21 05:11:28;;;;;;;69.40;27.83;;;8.80;99.20;;;;;;5068670;28;20415;-81
2021/11/21 05:13:55;;;;;;;68.93;30.27;;;8.80;99.20;;;;;;5041516;28;20028;-82
2021/11/21 05:16:20;;;;;;;76.43;29.90;;;8.80;99.20;;;;;;5067601;28;20025;-82
2021/11/21 05:18:46;;;;;;;71.38;30.17;;;8.80;99.20;;;;;;5070838;28;20423;-81
2021/11/21 05:21:12;;;;;;;69.13;30.27;;;8.70;99.10;;;;;;5037981;28;20021;-82
2021/11/21 05:23:37;;;;;;;69.97;30.95;;;8.70;99.20;;;;;;5054447;28;20516;-82
2021/11/21 05:26:03;;;;;;;67.03;29.52;;;8.70;99.10;;;;;;5053780;28;20033;-81
2021/11/21 05:28:30;;;;;;;84.55;30.92;;;8.70;99.20;;;;;;5054295;28;20024;-82
2021/11/21 05:30:56;;;;;;;72.15;31.88;;;8.70;99.40;;;;;;5049737;28;20029;-82
2021/11/21 05:33:23;;;;;;;76.32;31.33;;;8.70;99.20;;;;;;5050156;28;20036;-82
2021/11/21 05:35:48;;;;;;;77.70;30.45;;;8.80;99.30;;;;;;5068999;28;20423;-82
2021/11/21 05:38:14;;;;;;;71.88;30.60;;;8.70;99.20;;;;;;5067648;28;20032;-82
2021/11/21 05:40:40;;;;;;;73.03;31.13;;;8.70;99.20;;;;;;5048709;28;20440;-82
2021/11/21 05:43:05;;;;;;;76.25;31.23;;;8.80;99.20;;;;;;5055295;28;20078;-82
2021/11/21 05:45:31;;;;;;;66.85;29.45;;;8.70;99.20;;;;;;5053711;28;20054;-82
2021/11/21 05:47:57;;;;;;;74.30;29.98;;;8.80;99.30;;;;;;5071395;28;20048;-82
2021/11/21 05:50:23;;;;;;;75.75;31.45;;;8.80;99.30;;;;;;5070836;28;20082;-82
2021/11/21 05:52:50;;;;;;;71.32;30.25;;;8.80;99.30;;;;;;5073223;28;20534;-82
2021/11/21 05:55:18;;;;;;;68.32;30.42;;;8.80;99.30;;;;;;5074139;28;20055;-82
2021/11/21 05:57:44;;;;;;;70.85;30.83;;;8.80;99.30;;;;;;5043650;28;20028;-82
2021/11/21 06:00:13;;;;;;;70.45;29.92;;;8.80;99.20;;;;;;5057122;28;20478;-82
2021/11/21 06:02:39;;;;;;;75.47;30.90;;;8.80;99.20;;;;;;5070621;28;20411;-82
2021/11/21 06:05:06;;;;;;;67.18;29.25;;;8.80;99.30;;;;;;5072499;28;20043;-82
2021/11/21 06:07:32;;;;;;;70.45;31.45;;;8.70;99.30;;;;;;5074586;28;20423;-82
2021/11/21 06:10:01;;;;;;;63.47;28.17;;;8.80;99.30;;;;;;5074567;28;20107;-82
2021/11/21 06:12:27;;;;;;;62.88;27.55;;;8.70;99.30;;;;;;5072336;28;20768;-82
2021/11/21 06:14:52;;;;;;;63.17;29.75;;;8.80;99.30;;;;;;5053270;28;20132;-82
2021/11/21 06:17:18;;;;;;;68.72;29.35;;;8.80;99.30;;;;;;5068034;28;20133;-82
2021/11/21 06:19:46;;;;;;;65.72;28.38;;;8.80;99.30;;;;;;5071165;28;20471;-82
2021/11/21 06:22:12;;;;;;;70.45;29.20;;;8.80;99.30;;;;;;5072777;28;20040;-82
2021/11/21 06:24:37;;;;;;;61.60;28.00;;;8.80;99.60;;;;;;5056098;28;20797;-82
2021/11/21 06:27:03;;;;;;;62.42;27.92;;;8.80;99.30;;;;;;5023072;28;20037;-82
2021/11/21 06:29:29;;;;;;;66.00;28.48;;;8.80;99.30;;;;;;5069414;28;20021;-82
2021/11/21 06:31:54;;;;;;;59.17;27.58;;;8.80;99.30;;;;;;5073867;28;20029;-82
2021/11/21 06:34:20;;;;;;;72.78;29.67;;;8.80;99.30;;;;;;5074898;28;20036;-82
2021/11/21 06:36:46;;;;;;;77.25;29.75;;;8.80;99.30;;;;;;5073753;28;20843;-82
2021/11/21 06:39:12;;;;;;;68.80;29.00;;;8.80;99.30;;;;;;5073484;28;20025;-82
2021/11/21 06:41:38;;;;;;;68.03;28.65;;;8.80;99.40;;;;;;5073033;28;20068;-81
2021/11/21 06:44:05;;;;;;;71.60;29.42;;;8.80;99.40;;;;;;5073466;28;20365;-81
2021/11/21 06:46:32;;;;;;;72.07;29.05;;;8.80;99.40;;;;;;5073450;28;20067;-82
2021/11/21 06:48:58;;;;;;;85.95;29.95;;;8.80;99.40;;;;;;5074684;28;20031;-82
2021/11/21 06:51:24;;;;;;;67.00;27.30;;;8.80;99.50;;;;;;5073167;28;20028;-82
2021/11/21 06:53:49;;;;;;;56.80;25.85;;;8.80;99.50;;;;;;5074258;28;20028;-81
2021/11/21 06:56:16;;;;;;;64.40;25.65;;;8.80;99.50;;;;;;5074284;28;20093;-82
2021/11/21 06:58:43;;;;;;;60.15;24.30;;;8.80;99.60;;;;;;5056511;28;20883;-82
2021/11/21 07:01:09;;;;;;;52.70;23.35;;;8.80;99.60;;;;;;5074360;28;20029;-82
2021/11/21 07:03:34;;;;;;;56.72;22.90;;;8.80;99.60;;;;;;5056297;28;20086;-81
2021/11/21 07:06:00;;;;;;;56.47;22.70;;;8.80;99.60;;;;;;5055754;28;20473;-82
2021/11/21 07:08:26;;;;;;;49.10;20.13;;;8.80;99.70;;;;;;5056291;28;20025;-82
2021/11/21 07:10:52;;;;;;;40.58;19.30;;;8.80;99.70;;;;;;5074135;28;20020;-82
2021/11/21 07:13:18;;;;;;;68.47;22.30;;;8.80;99.70;;;;;;5073923;28;20801;-82
2021/11/21 07:15:43;;;;;;;59.33;20.85;;;8.80;99.70;;;;;;5056316;28;20141;-82
2021/11/21 07:18:09;;;;;;;61.05;21.10;;;8.80;99.70;;;;;;5056327;28;20562;-82
2021/11/21 07:20:35;;;;;;;60.15;20.75;;;8.80;99.60;;;;;;5056206;28;20032;-82
2021/11/21 07:23:01;;;;;;;54.22;23.05;;;8.80;99.70;;;;;;5073807;28;20041;-82
2021/11/21 07:25:26;;;;;;;47.20;21.75;;;8.80;99.70;;;;;;5055499;28;20043;-82
2021/11/21 07:27:53;;;;;;;56.50;23.60;;;8.70;99.80;;;;;;5073471;28;20021;-82
2021/11/21 07:30:21;;;;;;;45.10;22.40;;;8.80;99.90;;;;;;5073879;28;20031;-82
2021/11/21 07:32:48;;;;;;;44.30;21.48;;;8.80;99.90;;;;;;5073364;28;20016;-82
2021/11/21 07:35:16;;;;;;;45.53;20.35;;;8.80;99.90;;;;;;5056352;28;20037;-82
2021/11/21 07:37:42;;;;;;;35.70;17.15;;;8.80;99.90;;;;;;5047669;28;20060;-82
2021/11/21 07:40:10;;;;;;;61.55;20.75;;;8.80;99.90;;;;;;5055492;28;20497;-82
2021/11/21 07:42:36;;;;;;;36.17;17.92;;;8.80;99.90;;;;;;5073690;28;20017;-82
2021/11/21 07:45:04;;;;;;;40.78;18.05;;;8.80;99.90;;;;;;5038830;28;20115;-81
2021/11/21 07:47:30;;;;;;;48.15;19.02;;;8.80;99.90;;;;;;5072742;28;20036;-80
2021/11/21 07:49:57;;;;;;;45.13;20.60;;;8.80;99.90;;;;;;5070170;28;20827;-80
2021/11/21 07:52:25;;;;;;;67.60;22.58;;;8.80;99.90;;;;;;5027778;28;20091;-80
2021/11/21 07:54:50;;;;;;;50.47;22.00;;;8.80;99.90;;;;;;5069620;28;20068;-80
2021/11/21 07:57:16;;;;;;;46.80;20.75;;;8.80;99.90;;;;;;5051324;28;20063;-80
2021/11/21 07:59:42;;;;;;;50.95;21.42;;;8.80;99.90;;;;;;5035776;28;20037;-81
2021/11/21 08:02:08;;;;;;;50.85;22.02;;;8.80;99.90;;;;;;5036827;28;20033;-81
2021/11/21 08:04:33;;;;;;;55.60;24.30;;;8.80;99.90;;;;;;5037101;28;20037;-80
2021/11/21 08:06:59;;;;;;;48.83;21.42;;;8.90;99.90;;;;;;5054852;28;20493;-82
2021/11/21 08:09:25;;;;;;;106.60;26.88;;;8.90;99.90;;;;;;5055011;28;20032;-80
2021/11/21 08:11:51;;;;;;;47.17;21.60;;;9.00;99.90;;;;;;5072890;28;20044;-80
2021/11/21 08:14:17;;;;;;;51.35;22.23;;;8.90;99.90;;;;;;5032132;28;20111;-81
2021/11/21 08:16:43;;;;;;;40.38;20.05;;;8.90;99.90;;;;;;5050547;28;20442;-80
2021/11/21 08:19:10;;;;;;;76.90;24.63;;;8.90;99.90;;;;;;5035078;28;20064;-79
2021/11/21 08:21:37;;;;;;;55.00;22.95;;;9.00;99.90;;;;;;5041355;28;20021;-80
2021/11/21 08:24:03;;;;;;;47.10;20.80;;;9.00;99.90;;;;;;5018813;28;20531;-80
2021/11/21 08:26:30;;;;;;;48.25;21.55;;;9.00;99.90;;;;;;5066646;28;20021;-80
2021/11/21 08:28:55;;;;;;;57.35;22.52;;;9.00;99.90;;;;;;5038508;28;20043;-80
2021/11/21 08:31:22;;;;;;;57.25;21.83;;;9.00;99.90;;;;;;5072448;28;20029;-80
2021/11/21 08:33:48;;;;;;;46.45;21.67;;;9.10;99.90;;;;;;5034883;28;20036;-80
2021/11/21 08:36:13;;;;;;;40.47;19.75;;;9.10;99.90;;;;;;5028517;28;20036;-80
2021/11/21 08:38:39;;;;;;;44.40;20.30;;;9.10;99.90;;;;;;5054627;28;20112;-80
2021/11/21 08:41:05;;;;;;;55.75;21.30;;;9.10;99.90;;;;;;5054275;28;20032;-78
2021/11/21 08:43:30;;;;;;;57.15;23.73;;;9.20;99.90;;;;;;5072016;28;20454;-79
2021/11/21 08:45:56;;;;;;;46.67;20.65;;;9.20;99.90;;;;;;5054672;28;20056;-79
2021/11/21 08:48:22;;;;;;;43.53;20.20;;;9.20;99.90;;;;;;5020404;28;20079;-79
2021/11/21 08:50:48;;;;;;;63.40;23.05;;;9.20;99.90;;;;;;5034370;28;20036;-79
2021/11/21 08:53:13;;;;;;;41.45;19.70;;;9.20;99.90;;;;;;5054225;28;20071;-79
2021/11/21 08:55:39;;;;;;;39.63;19.70;;;9.30;99.90;;;;;;5044171;28;20080;-79
2021/11/21 08:58:06;;;;;;;40.10;19.23;;;9.30;99.90;;;;;;5062473;28;20076;-79
2021/11/21 09:00:32;;;;;;;48.38;19.73;;;9.40;99.90;;;;;;5055609;28;20412;-79
2021/11/21 09:02:58;;;;;;;59.13;21.30;;;9.40;99.90;;;;;;5054184;28;20044;-79
2021/11/21 09:05:24;;;;;;;39.95;19.52;;;9.40;99.90;;;;;;5068391;28;20037;-79
2021/11/21 09:07:50;;;;;;;57.67;22.25;;;9.50;99.90;;;;;;5063755;28;20029;-79
2021/11/21 09:10:19;;;;;;;59.17;22.92;;;9.50;99.90;;;;;;5059303;28;20111;-79
2021/11/21 09:12:46;;;;;;;48.60;21.05;;;9.60;99.90;;;;;;5058111;28;20116;-79
2021/11/21 09:15:14;;;;;;;46.90;19.98;;;9.60;99.80;;;;;;5069170;28;20495;-80
2021/11/21 09:17:42;;;;;;;42.97;18.05;;;9.60;99.80;;;;;;5056775;28;20040;-79
2021/11/21 09:20:08;;;;;;;45.88;19.42;;;9.70;99.80;;;;;;5070308;28;20069;-80
2021/11/21 09:22:34;;;;;;;43.05;18.52;;;9.70;99.80;;;;;;5054022;28;20041;-80
2021/11/21 09:25:00;;;;;;;42.00;18.77;;;9.70;99.80;;;;;;5067124;28;20040;-79
2021/11/21 09:27:26;;;;;;;39.15;17.85;;;9.60;99.70;;;;;;5052693;28;20025;-79
2021/11/21 09:29:52;;;;;;;46.53;19.65;;;9.70;99.80;;;;;;5073476;28;20029;-84
2021/11/21 09:32:17;;;;;;;37.65;18.38;;;9.70;99.80;;;;;;5075405;28;20090;-84
2021/11/21 09:34:43;;;;;;;53.80;20.15;;;9.70;99.80;;;;;;5075219;28;20025;-84
2021/11/21 09:37:09;;;;;;;46.13;20.02;;;9.70;99.80;;;;;;5041065;28;20025;-84
2021/11/21 09:39:36;;;;;;;39.97;18.10;;;9.60;99.80;;;;;;5070391;28;20493;-83
2021/11/21 09:42:02;;;;;;;49.17;17.90;;;9.60;99.90;;;;;;5075421;28;20051;-83
2021/11/21 09:44:28;;;;;;;44.75;17.63;;;9.60;99.90;;;;;;5073971;28;20562;-83
2021/11/21 09:46:54;;;;;;;58.88;21.08;;;9.60;99.90;;;;;;5057603;28;20033;-82
2021/11/21 09:49:21;;;;;;;41.40;18.05;;;9.70;99.90;;;;;;5049325;28;20066;-83
2021/11/21 09:51:46;;;;;;;44.03;18.25;;;9.60;99.90;;;;;;5047607;28;20033;-83
2021/11/21 09:54:14;;;;;;;42.97;18.00;;;9.60;99.90;;;;;;5056213;28;20037;-84
2021/11/21 09:56:41;;;;;;;41.35;17.70;;;9.70;99.90;;;;;;5065940;28;20123;-83
2021/11/21 09:59:06;;;;;;;45.97;18.70;;;9.70;99.90;;;;;;5035784;28;20036;-83
2021/11/21 10:01:35;;;;;;;40.38;18.45;;;9.70;99.90;;;;;;5037838;28;20025;-83
2021/11/21 10:04:01;;;;;;;38.65;17.05;;;9.80;99.90;;;;;;5054601;28;20493;-85
2021/11/21 10:06:44;;;;;;;42.97;18.10;;;9.90;99.90;;;;;;5027065;28;20037;-84
2021/11/21 10:09:11;;;;;;;51.65;20.00;;;9.90;99.90;;;;;;5054270;28;20055;-84
2021/11/21 10:11:57;;;;;;;41.55;18.85;;;10.00;99.90;;;;;;5057225;28;20029;-82
2021/11/21 10:14:23;;;;;;;70.65;21.92;;;10.00;99.90;;;;;;5056796;28;20056;-82
2021/11/21 10:16:49;;;;;;;37.15;17.52;;;10.00;99.80;;;;;;5053520;28;20448;-80
2021/11/21 10:19:14;;;;;;;44.03;18.60;;;10.10;99.80;;;;;;5056530;28;20484;-84
2021/11/21 10:21:58;;;;;;;49.50;18.77;;;10.10;99.80;;;;;;5033898;28;20481;-86
2021/11/21 10:24:24;;;;;;;41.63;17.77;;;10.20;99.80;;;;;;5053007;28;20058;-84
2021/11/21 10:27:19;;;;;;;44.67;19.08;;;10.20;99.80;;;;;;5056169;28;20063;-82
2021/11/21 10:29:49;;;;;;;44.42;18.20;;;10.20;99.80;;;;;;5052032;28;20035;-86
2021/11/21 10:32:35;;;;;;;41.28;17.02;;;10.20;99.80;;;;;;5056041;28;20026;-83
2021/11/21 10:35:06;;;;;;;45.83;17.75;;;10.20;99.80;;;;;;5070237;28;20554;-84
2021/11/21 10:37:38;;;;;;;41.72;17.48;;;10.20;99.70;;;;;;5056753;28;20037;-84
2021/11/21 10:40:09;;;;;;;36.47;16.48;;;10.30;99.70;;;;;;5055090;28;20021;-82
2021/11/21 10:42:37;;;;;;;36.25;16.05;;;10.30;99.70;;;;;;5074105;28;20579;-82
2021/11/21 10:45:04;;;;;;;40.45;15.90;;;10.30;99.70;;;;;;5074022;28;20024;-83
2021/11/21 10:47:46;;;;;;;42.90;17.20;;;10.40;99.70;;;;;;5056307;28;20439;-82
2021/11/21 10:50:28;;;;;;;34.17;15.48;;;10.40;99.60;;;;;;5068125;28;20107;-83
2021/11/21 10:52:55;;;;;;;28.70;14.85;;;10.40;99.50;;;;;;5074008;28;20021;-83
2021/11/21 10:55:21;;;;;;;33.05;14.23;;;10.50;99.40;;;;;;5065608;28;20060;-84
2021/11/21 10:57:47;;;;;;;33.03;13.85;;;10.50;99.40;;;;;;5055935;28;20718;-83
2021/11/21 11:00:18;;;;;;;27.40;12.70;;;10.60;99.30;;;;;;5019860;28;20059;-83
2021/11/21 11:02:44;;;;;;;23.08;9.80;;;10.60;99.20;;;;;;5055932;28;20028;-82
2021/11/21 11:05:13;;;;;;;25.58;9.23;;;10.60;99.00;;;;;;5054769;28;21720;-79
2021/11/21 11:07:42;;;;;;;26.92;8.95;;;10.70;98.80;;;;;;5073047;28;20038;-78
2021/11/21 11:10:12;;;;;;;24.17;7.70;;;10.60;98.60;;;;;;5048004;28;20063;-78
2021/11/21 11:12:40;;;;;;;20.60;6.40;;;10.60;98.40;;;;;;5054678;28;20032;-78
2021/11/21 11:15:07;;;;;;;25.23;6.37;;;10.60;98.20;;;;;;5055201;28;20028;-79
2021/11/21 11:17:34;;;;;;;25.05;5.75;;;10.60;97.90;;;;;;5073374;28;20055;-79
2021/11/21 11:20:02;;;;;;;26.25;4.82;;;10.60;97.70;;;;;;5054920;28;20016;-79
2021/11/21 11:22:28;;;;;;;21.33;5.13;;;10.60;97.60;;;;;;5055311;28;20119;-79
2021/11/21 11:24:56;;;;;;;21.85;4.78;;;10.60;97.50;;;;;;5055039;28;20082;-79
2021/11/21 11:27:38;;;;;;;24.50;5.65;;;10.60;97.50;;;;;;5055564;28;20032;-78
2021/11/21 11:30:04;;;;;;;21.40;5.60;;;10.70;97.60;;;;;;5073641;28;20033;-79
2021/11/21 11:32:37;;;;;;;23.80;4.68;;;10.70;97.50;;;;;;5055487;28;20384;-79
2021/11/21 11:35:17;;;;;;;20.27;4.18;;;10.60;97.40;;;;;;5073175;28;20032;-78
2021/11/21 11:37:51;;;;;;;26.52;4.18;;;10.70;97.40;;;;;;5055497;28;20059;-78
2021/11/21 11:40:30;;;;;;;17.95;3.55;;;10.70;97.20;;;;;;5073359;28;20035;-79
2021/11/21 11:42:58;;;;;;;16.27;3.90;;;10.70;96.90;;;;;;5051871;28;20051;-78
2021/11/21 11:45:40;;;;;;;18.02;3.50;;;10.70;97.10;;;;;;5050425;28;20044;-78
2021/11/21 11:48:28;;;;;;;18.27;3.72;;;10.70;96.90;;;;;;5051037;28;20025;-79
2021/11/21 11:50:56;;;;;;;13.95;2.78;;;10.70;97.00;;;;;;5034567;28;20174;-79
2021/11/21 11:53:53;;;;;;;13.27;3.38;;;10.70;96.80;;;;;;5052876;28;20086;-79
2021/11/21 11:56:27;;;;;;;19.08;2.70;;;10.70;96.50;;;;;;5012995;28;20040;-79
2021/11/21 11:59:09;;;;;;;15.48;3.22;;;10.70;96.10;;;;;;5061891;28;20024;-79
2021/11/21 12:01:37;;;;;;;12.85;2.45;;;10.70;96.10;;;;;;5050421;28;20024;-78
2021/11/21 12:04:29;;;;;;;17.60;2.42;;;10.70;96.00;;;;;;5052713;28;20021;-78
2021/11/21 12:06:57;;;;;;;13.30;2.53;;;10.60;95.90;;;;;;5053766;28;20020;-79
2021/11/21 12:09:34;;;;;;;15.98;3.10;;;10.70;95.80;;;;;;5054170;28;20055;-79
2021/11/21 12:12:11;;;;;;;16.40;3.03;;;10.70;95.70;;;;;;5053868;28;20020;-78
2021/11/21 12:14:42;;;;;;;14.23;3.05;;;10.60;95.50;;;;;;5034681;28;20037;-79
2021/11/21 12:17:09;;;;;;;17.55;3.22;;;10.60;95.40;;;;;;5051409;28;20020;-78
2021/11/21 12:19:45;;;;;;;14.60;3.65;;;10.60;95.50;;;;;;5054100;28;20051;-78
2021/11/21 12:22:29;;;;;;;12.73;2.85;;;10.70;95.70;;;;;;5049173;28;20107;-78
2021/11/21 12:25:10;;;;;;;15.00;3.35;;;10.70;95.70;;;;;;5051118;28;20059;-79
2021/11/21 12:27:44;;;;;;;16.33;3.60;;;10.70;95.60;;;;;;5065122;28;20025;-79
2021/11/21 12:30:21;;;;;;;16.48;2.90;;;10.70;95.60;;;;;;5050937;28;20017;-79
2021/11/21 12:32:49;;;;;;;17.73;3.13;;;10.70;95.40;;;;;;5048609;28;20385;-79
2021/11/21 12:35:30;;;;;;;13.52;3.05;;;10.70;95.40;;;;;;5049632;28;20370;-78
2021/11/21 12:38:01;;;;;;;22.10;3.28;;;10.80;95.40;;;;;;5052086;28;20162;-78